createdAt,value
2023-04-05T00:01:21.444Z,100.00
2023-04-05T00:06:26.595Z,100.00
2023-04-05T00:11:32.804Z,100.00
2023-04-05T00:16:36.347Z,100.00
2023-04-05T00:21:40.736Z,100.00
2023-04-05T00:26:45.436Z,100.00
2023-04-05T00:31:48.887Z,100.00
2023-04-05T00:36:52.131Z,100.00
2023-04-05T00:41:57.185Z,100.00
2023-04-05T00:47:00.482Z,100.00
2023-04-05T00:52:04.169Z,100.00
2023-04-05T00:57:09.065Z,100.00
2023-04-05T01:02:18.675Z,100.00
2023-04-05T01:07:30.336Z,100.00
2023-04-05T01:12:37.039Z,100.00
2023-04-05T01:17:42.074Z,100.00
2023-04-05T01:23:14.981Z,100.00
2023-04-05T01:28:47.510Z,100.00
2023-04-05T01:33:59.979Z,100.00
2023-04-05T01:39:05.592Z,100.00
2023-04-05T01:44:08.819Z,100.00
2023-04-05T01:49:13.308Z,100.00
2023-04-05T01:54:17.444Z,100.00
2023-04-05T01:59:20.807Z,100.00
2023-04-05T02:04:25.822Z,100.00
2023-04-05T02:09:28.987Z,100.00
2023-04-05T02:14:32.255Z,100.00
2023-04-05T02:19:40.912Z,100.00
2023-04-05T02:24:44.593Z,100.00
2023-04-05T02:29:47.825Z,100.00
2023-04-05T02:34:53.113Z,100.00
2023-04-05T02:39:59.341Z,100.00
2023-04-05T02:45:02.568Z,100.00
2023-04-05T02:50:08.601Z,100.00
2023-04-05T02:55:18.331Z,100.00
2023-04-05T03:00:22.442Z,100.00
2023-04-05T03:05:28.801Z,100.00
2023-04-05T03:10:35.084Z,100.00
2023-04-05T03:15:47.625Z,100.00
2023-04-05T03:20:56.923Z,100.00
2023-04-05T03:26:01.418Z,100.00
2023-04-05T03:31:07.977Z,100.00
2023-04-05T03:36:16.592Z,100.00
2023-04-05T03:41:22.068Z,100.00
2023-04-05T03:46:25.409Z,100.00
2023-04-05T03:51:30.190Z,100.00
2023-04-05T03:56:34.120Z,100.00
2023-04-05T04:01:46.421Z,100.00
2023-04-05T04:06:52.688Z,100.00
2023-04-05T04:11:59.815Z,100.00
2023-04-05T04:17:03.449Z,100.00
2023-04-05T04:22:33.230Z,100.00
2023-04-05T04:27:57.547Z,100.00
2023-04-05T04:33:22.057Z,100.00
2023-04-05T04:38:35.921Z,100.00
2023-04-05T04:43:51.684Z,100.00
2023-04-05T04:49:13.766Z,100.00
2023-04-05T04:54:23.836Z,100.00
2023-04-05T04:59:26.995Z,100.00
2023-04-05T05:04:30.228Z,100.00
2023-04-05T05:09:34.965Z,100.00
2023-04-05T05:14:38.245Z,100.00
2023-04-05T05:19:41.487Z,100.00
2023-04-05T05:24:46.585Z,100.00
2023-04-05T05:29:49.805Z,100.00
2023-04-05T05:34:53.046Z,100.00
2023-04-05T05:39:57.606Z,100.00
2023-04-05T05:45:06.879Z,100.00
2023-04-05T05:50:10.917Z,100.00
2023-04-05T05:55:15.551Z,100.00
2023-04-05T06:00:20.014Z,100.00
2023-04-05T06:05:23.130Z,100.00
2023-04-05T06:10:27.717Z,100.00
2023-04-05T06:15:32.610Z,100.00
2023-04-05T06:20:35.836Z,100.00
2023-04-05T06:25:40.839Z,100.00
2023-04-05T06:30:45.102Z,100.00
2023-04-05T06:35:48.323Z,100.00
2023-04-05T06:40:53.008Z,100.00
2023-04-05T06:45:57.640Z,96.75
2023-04-05T06:51:01.789Z,92.40
2023-04-05T06:56:06.845Z,90.45
2023-04-05T07:01:10.232Z,83.99
2023-04-05T07:06:13.664Z,79.11
2023-04-05T07:11:18.279Z,77.11
2023-04-05T07:16:23.757Z,77.48
2023-04-05T07:21:27.096Z,76.00
2023-04-05T07:26:35.028Z,73.80
2023-04-05T07:31:39.311Z,73.59
2023-04-05T07:36:42.555Z,70.83
2023-04-05T07:41:47.234Z,78.37
2023-04-05T07:46:50.635Z,66.06
2023-04-05T07:51:56.704Z,59.20
2023-04-05T07:57:01.553Z,55.72
2023-04-05T08:02:14.129Z,53.89
2023-04-05T08:07:18.899Z,51.60
2023-04-05T08:12:23.805Z,54.93
2023-04-05T08:17:28.422Z,53.08
2023-04-05T08:22:32.106Z,54.69
2023-04-05T08:27:36.934Z,51.73
2023-04-05T08:32:41.151Z,55.25
2023-04-05T08:37:44.727Z,54.15
2023-04-05T08:42:55.740Z,51.33
2023-04-05T08:47:59.917Z,51.62
2023-04-05T08:53:03.602Z,52.61
2023-04-05T08:58:14.583Z,50.09
2023-04-05T09:03:22.476Z,51.15
2023-04-05T09:08:29.069Z,51.42
2023-04-05T09:13:34.685Z,49.74
2023-04-05T09:18:38.040Z,49.15
2023-04-05T09:23:53.157Z,49.52
2023-04-05T09:28:57.840Z,48.53
2023-04-05T09:34:03.693Z,48.08
2023-04-05T09:39:08.332Z,48.55
2023-04-05T09:44:13.514Z,47.01
2023-04-05T09:49:33.941Z,46.80
2023-04-05T09:54:43.522Z,44.19
2023-04-05T09:59:49.713Z,44.21
2023-04-05T10:04:53.369Z,47.40
2023-04-05T10:09:58.121Z,44.81
2023-04-05T10:15:04.309Z,43.61
2023-04-05T10:20:15.593Z,43.08
2023-04-05T10:25:27.436Z,43.51
2023-04-05T10:30:36.960Z,42.61
2023-04-05T10:35:51.369Z,44.18
2023-04-05T10:40:58.583Z,46.51
2023-04-05T10:46:05.320Z,44.42
2023-04-05T10:51:08.793Z,44.21
2023-04-05T10:56:13.403Z,45.35
2023-04-05T11:01:19.798Z,45.57
2023-04-05T11:06:25.434Z,46.85
2023-04-05T11:11:28.986Z,44.92
2023-04-05T11:16:41.711Z,45.16
2023-04-05T11:21:45.648Z,44.25
2023-04-05T11:26:56.627Z,45.69
2023-04-05T11:32:07.237Z,46.21
2023-04-05T11:37:10.613Z,44.24
2023-04-05T11:42:13.883Z,45.05
2023-04-05T11:47:21.913Z,42.80
2023-04-05T11:52:25.790Z,45.54
2023-04-05T11:57:29.437Z,43.14
2023-04-05T12:02:37.242Z,43.65
2023-04-05T12:07:40.908Z,43.75
2023-04-05T12:12:47.733Z,43.97
2023-04-05T12:17:54.748Z,43.55
2023-04-05T12:22:58.520Z,41.92
2023-04-05T12:28:09.080Z,41.78
2023-04-05T12:33:13.696Z,41.73
2023-04-05T12:38:17.713Z,42.81
2023-04-05T12:43:20.920Z,40.45
2023-04-05T12:48:27.008Z,40.69
2023-04-05T12:53:30.385Z,41.66
2023-04-05T12:58:35.859Z,42.59
2023-04-05T13:03:40.800Z,42.81
2023-04-05T13:08:43.969Z,41.20
2023-04-05T13:13:47.111Z,42.92
2023-04-05T13:18:51.623Z,42.47
2023-04-05T13:23:54.776Z,42.52
2023-04-05T13:28:57.961Z,42.65
2023-04-05T13:34:02.414Z,43.03
2023-04-05T13:39:05.852Z,42.35
2023-04-05T13:44:09.268Z,42.12
2023-04-05T13:49:13.886Z,40.91
2023-04-05T13:54:17.959Z,43.81
2023-04-05T13:59:21.534Z,42.35
2023-04-05T14:04:26.540Z,42.17
2023-04-05T14:09:30.505Z,42.73
2023-04-05T14:14:33.877Z,42.26
2023-04-05T14:19:38.779Z,42.84
2023-04-05T14:24:42.132Z,45.14
2023-04-05T14:29:46.755Z,44.65
2023-04-05T14:34:51.531Z,45.31
2023-04-05T14:39:54.862Z,43.57
2023-04-05T14:44:58.087Z,44.92
2023-04-05T14:50:03.248Z,43.94
2023-04-05T14:55:07.415Z,45.41
2023-04-05T15:00:12.494Z,44.45
2023-04-05T15:05:17.427Z,44.68
2023-04-05T15:10:20.793Z,44.33
2023-04-05T15:15:24.169Z,44.63
2023-04-05T15:20:28.890Z,43.77
2023-04-05T15:25:32.359Z,44.77
2023-04-05T15:30:37.750Z,46.07
2023-04-05T15:35:42.549Z,44.58
2023-04-05T15:40:49.591Z,45.07
2023-04-05T15:45:53.066Z,46.92
2023-04-05T15:50:57.808Z,45.16
2023-04-05T15:56:01.203Z,44.95
2023-04-05T16:01:04.574Z,46.15
2023-04-05T16:06:10.835Z,45.26
2023-04-05T16:11:14.427Z,46.12
2023-04-05T16:16:29.824Z,46.48
2023-04-05T16:21:45.451Z,46.88
2023-04-05T16:26:48.778Z,46.60
2023-04-05T16:31:52.433Z,48.06
2023-04-05T16:36:57.877Z,47.82
2023-04-05T16:42:01.415Z,47.35
2023-04-05T16:47:04.806Z,46.90
2023-04-05T16:52:10.511Z,47.49
2023-04-05T16:57:14.473Z,48.86
2023-04-05T17:02:18.090Z,47.80
2023-04-05T17:07:22.800Z,48.70
2023-04-05T17:12:26.098Z,52.03
2023-04-05T17:17:30.749Z,52.69
2023-04-05T17:22:37.582Z,55.40
2023-04-05T17:27:41.369Z,55.59
2023-04-05T17:32:46.291Z,55.88
2023-04-05T17:37:52.824Z,55.32
2023-04-05T17:42:56.011Z,57.56
2023-04-05T17:47:59.436Z,57.26
2023-04-05T17:53:04.383Z,59.33
2023-04-05T17:58:07.698Z,61.14
2023-04-05T18:03:13.198Z,62.31
2023-04-05T18:08:18.156Z,62.08
2023-04-05T18:13:21.429Z,67.10
2023-04-05T18:18:25.066Z,76.49
2023-04-05T18:23:29.976Z,75.38
2023-04-05T18:28:34.392Z,78.10
2023-04-05T18:33:39.398Z,76.67
2023-04-05T18:38:44.080Z,81.35
2023-04-05T18:43:53.421Z,78.69
2023-04-05T18:48:57.767Z,81.46
2023-04-05T18:54:02.974Z,85.88
2023-04-05T18:59:06.783Z,85.55
2023-04-05T19:04:10.544Z,86.77
2023-04-05T19:09:16.761Z,89.49
2023-04-05T19:14:20.946Z,91.59
2023-04-05T19:19:24.417Z,93.34
2023-04-05T19:24:30.355Z,95.31
2023-04-05T19:29:35.599Z,92.17
2023-04-05T19:34:40.177Z,92.47
2023-04-05T19:39:45.761Z,91.62
2023-04-05T19:44:52.205Z,89.79
2023-04-05T19:49:57.810Z,89.58
2023-04-05T19:55:03.531Z,97.93
2023-04-05T20:00:29.443Z,98.68
2023-04-05T20:05:58.117Z,96.53
2023-04-05T20:11:11.148Z,96.54
2023-04-05T20:16:15.975Z,99.79
2023-04-05T20:21:20.027Z,99.71
2023-04-05T20:26:29.062Z,100.00
2023-04-05T20:31:35.207Z,100.00
2023-04-05T20:36:44.499Z,100.00
2023-04-05T20:41:49.223Z,99.85
2023-04-05T20:46:54.027Z,100.00
2023-04-05T20:51:57.706Z,100.00
2023-04-05T20:57:02.561Z,100.00
2023-04-05T21:02:05.878Z,100.00
2023-04-05T21:07:08.989Z,100.00
2023-04-05T21:12:13.935Z,100.00
2023-04-05T21:17:17.155Z,100.00
2023-04-05T21:22:21.377Z,100.00
2023-04-05T21:27:27.339Z,100.00
2023-04-05T21:32:30.883Z,100.00
2023-04-05T21:37:34.174Z,100.00
2023-04-05T21:42:38.851Z,100.00
2023-04-05T21:47:42.538Z,100.00
2023-04-05T21:52:46.512Z,100.00
2023-04-05T21:57:51.465Z,100.00
2023-04-05T22:02:54.943Z,100.00
2023-04-05T22:07:58.815Z,100.00
2023-04-05T22:13:03.795Z,100.00
2023-04-05T22:18:07.244Z,100.00
2023-04-05T22:23:10.629Z,100.00
2023-04-05T22:28:15.781Z,100.00
2023-04-05T22:33:19.041Z,100.00
2023-04-05T22:38:22.199Z,100.00
2023-04-05T22:43:27.890Z,100.00
2023-04-05T22:48:31.381Z,100.00
2023-04-05T22:53:34.568Z,100.00
2023-04-05T22:58:39.241Z,100.00
2023-04-05T23:03:42.759Z,100.00
2023-04-05T23:08:46.226Z,100.00
2023-04-05T23:13:52.049Z,100.00
2023-04-05T23:18:55.192Z,100.00
2023-04-05T23:23:58.441Z,100.00
2023-04-05T23:29:03.517Z,100.00
2023-04-05T23:34:06.717Z,100.00
2023-04-05T23:39:10.058Z,100.00
2023-04-05T23:44:14.769Z,100.00
2023-04-05T23:49:18.084Z,100.00
2023-04-05T23:54:21.456Z,100.00
2023-04-05T23:59:26.301Z,100.00
